createdAt,value
2017-02-21T00:00:41.358Z,10.66
2017-02-21T00:01:41.323Z,10.64
2017-02-21T00:02:41.319Z,10.63
2017-02-21T00:03:41.305Z,10.63
2017-02-21T00:04:41.305Z,10.66
2017-02-21T00:05:41.308Z,10.68
2017-02-21T00:06:41.285Z,10.66
2017-02-21T00:07:41.314Z,10.6
2017-02-21T00:08:41.273Z,10.66
2017-02-21T00:09:41.262Z,10.67
2017-02-21T00:10:40.860Z,10.63
2017-02-21T00:11:41.251Z,10.66
2017-02-21T00:12:41.230Z,10.64
2017-02-21T00:13:41.224Z,10.59
2017-02-21T00:14:41.219Z,10.67
2017-02-21T00:15:41.211Z,10.64
2017-02-21T00:16:41.206Z,10.7
2017-02-21T00:17:41.208Z,10.56
2017-02-21T00:18:41.190Z,10.67
2017-02-21T00:19:41.182Z,10.68
2017-02-21T00:20:41.178Z,10.63
2017-02-21T00:21:41.154Z,10.68
2017-02-21T00:22:41.170Z,10.7
2017-02-21T00:23:41.140Z,10.68
2017-02-21T00:24:40.369Z,10.63
2017-02-21T00:25:41.123Z,10.68
2017-02-21T00:26:41.129Z,10.71
2017-02-21T00:27:41.113Z,10.73
2017-02-21T00:28:41.103Z,10.74
2017-02-21T00:29:41.090Z,10.66
2017-02-21T00:30:41.084Z,10.67
2017-02-21T00:31:41.074Z,10.63
2017-02-21T00:32:41.071Z,10.68
2017-02-21T00:33:40.670Z,10.64
2017-02-21T00:34:41.048Z,10.66
2017-02-21T00:35:41.054Z,10.66
2017-02-21T00:36:41.030Z,10.63
2017-02-21T00:37:41.042Z,10.63
2017-02-21T00:38:41.015Z,10.68
2017-02-21T00:39:41.012Z,10.64
2017-02-21T00:40:41.033Z,10.63
2017-02-21T00:41:41.005Z,10.64
2017-02-21T00:42:40.993Z,10.63
2017-02-21T00:43:40.992Z,10.64
2017-02-21T00:44:40.995Z,10.68
2017-02-21T00:45:40.968Z,10.66
2017-02-21T00:46:40.949Z,10.71
2017-02-21T00:47:40.942Z,10.73
2017-02-21T00:48:40.554Z,10.64
2017-02-21T00:49:40.540Z,10.63
2017-02-21T00:50:40.528Z,10.7
2017-02-21T00:51:40.908Z,10.68
2017-02-21T00:52:40.908Z,10.61
2017-02-21T00:53:40.521Z,10.7
2017-02-21T00:54:40.885Z,10.67
2017-02-21T00:55:40.903Z,10.73
2017-02-21T00:56:40.868Z,10.66
2017-02-21T00:57:40.859Z,10.67
2017-02-21T00:58:40.464Z,10.66
2017-02-21T00:59:40.476Z,10.68
2017-02-21T01:00:40.466Z,10.67
2017-02-21T01:01:40.440Z,10.66
2017-02-21T01:02:40.440Z,10.66
2017-02-21T01:03:40.431Z,10.63
2017-02-21T01:04:40.433Z,10.6
2017-02-21T01:05:40.791Z,10.52
2017-02-21T01:06:40.397Z,10.59
2017-02-21T01:07:40.782Z,10.48
2017-02-21T01:08:40.382Z,10.56
2017-02-21T01:09:40.376Z,10.48
2017-02-21T01:10:40.366Z,10.47
2017-02-21T01:11:40.354Z,10.47
2017-02-21T01:12:40.348Z,10.41
2017-02-21T01:13:40.734Z,10.52
2017-02-21T01:14:40.329Z,10.42
2017-02-21T01:15:40.712Z,10.4
2017-02-21T01:16:40.329Z,10.45
2017-02-21T01:17:40.708Z,10.45
2017-02-21T01:18:40.684Z,10.42
2017-02-21T01:19:40.673Z,10.41
2017-02-21T01:20:40.679Z,10.4
2017-02-21T01:21:40.658Z,10.38
2017-02-21T01:22:40.265Z,10.34
2017-02-21T01:23:40.254Z,10.4
2017-02-21T01:24:40.670Z,10.3
2017-02-21T01:25:40.624Z,10.26
2017-02-21T01:26:40.619Z,10.25
2017-02-21T01:27:40.607Z,10.4
2017-02-21T01:28:40.606Z,10.26
2017-02-21T01:29:40.590Z,10.26
2017-02-21T01:30:40.597Z,10.34
2017-02-21T01:31:40.577Z,10.29
2017-02-21T01:32:40.177Z,10.3
2017-02-21T01:33:40.574Z,10.22
2017-02-21T01:34:40.596Z,10.2
2017-02-21T01:35:40.540Z,10.23
2017-02-21T01:36:40.535Z,10.12
2017-02-21T01:37:40.534Z,10.09
2017-02-21T01:38:40.137Z,10.14
2017-02-21T01:39:40.120Z,10.08
2017-02-21T01:40:40.120Z,10.08
2017-02-21T01:41:40.106Z,10.02
2017-02-21T01:42:40.487Z,9.96
2017-02-21T01:43:40.083Z,9.91
2017-02-21T01:44:40.074Z,9.87
2017-02-21T01:45:40.066Z,9.86
2017-02-21T01:46:40.449Z,9.87
2017-02-21T01:47:40.440Z,9.86
2017-02-21T01:48:40.431Z,9.79
2017-02-21T01:49:40.419Z,9.76
2017-02-21T01:50:40.438Z,9.84
2017-02-21T01:51:40.400Z,9.87
2017-02-21T01:52:40.392Z,9.76
2017-02-21T01:53:40.416Z,9.76
2017-02-21T01:54:40.376Z,9.78
2017-02-21T01:55:40.366Z,9.69
2017-02-21T01:56:40.361Z,9.69
2017-02-21T01:57:40.373Z,9.71
2017-02-21T01:58:40.340Z,9.78
2017-02-21T01:59:40.335Z,9.71
2017-02-21T02:00:40.327Z,9.66
2017-02-21T02:01:40.327Z,9.61
2017-02-21T02:02:40.314Z,9.61
2017-02-21T02:03:40.305Z,9.48
2017-02-21T02:04:40.282Z,9.47
2017-02-21T02:05:40.277Z,9.51
2017-02-21T02:06:40.293Z,9.43
2017-02-21T02:07:40.272Z,9.38
2017-02-21T02:08:40.274Z,9.4
2017-02-21T02:09:40.251Z,9.43
2017-02-21T02:10:40.235Z,9.48
2017-02-21T02:11:40.221Z,9.47
2017-02-21T02:12:40.217Z,9.38
2017-02-21T02:13:40.204Z,9.4
2017-02-21T02:14:40.201Z,9.46
2017-02-21T02:15:40.203Z,9.36
2017-02-21T02:16:40.193Z,9.31
2017-02-21T02:17:40.187Z,9.31
2017-02-21T02:18:40.167Z,9.33
2017-02-21T02:19:40.149Z,9.29
2017-02-21T02:20:40.155Z,9.23
2017-02-21T02:21:40.133Z,9.15
2017-02-21T02:22:40.134Z,9.11
2017-02-21T02:23:40.115Z,9.11
2017-02-21T02:24:40.105Z,8.99
2017-02-21T02:25:40.097Z,9.01
2017-02-21T02:26:40.137Z,9.02
2017-02-21T02:27:40.112Z,9.02
2017-02-21T02:28:40.067Z,8.94
2017-02-21T02:29:40.083Z,8.99
2017-02-21T02:30:40.056Z,8.94
2017-02-21T02:31:40.046Z,8.98
2017-02-21T02:32:40.031Z,8.99
2017-02-21T02:33:40.030Z,8.86
2017-02-21T02:34:40.019Z,8.86
2017-02-21T02:35:40.009Z,8.84
2017-02-21T02:36:39.992Z,8.77
2017-02-21T02:37:40.002Z,8.83
2017-02-21T02:38:39.982Z,8.8
2017-02-21T02:39:39.982Z,8.86
2017-02-21T02:40:39.953Z,8.68
2017-02-21T02:41:39.960Z,8.8
2017-02-21T02:42:39.933Z,8.76
2017-02-21T02:43:39.925Z,8.7
2017-02-21T02:44:39.918Z,8.68
2017-02-21T02:45:39.907Z,8.7
2017-02-21T02:46:39.896Z,8.74
2017-02-21T02:47:39.889Z,8.66
2017-02-21T02:48:39.878Z,8.58
2017-02-21T02:49:39.869Z,8.66
2017-02-21T02:50:39.894Z,8.56
2017-02-21T02:51:39.846Z,8.68
2017-02-21T02:52:39.841Z,8.71
2017-02-21T02:53:39.844Z,8.63
2017-02-21T02:54:39.823Z,8.66
2017-02-21T02:55:39.814Z,8.8
2017-02-21T02:56:39.835Z,8.73
2017-02-21T02:57:39.405Z,8.77
2017-02-21T02:58:39.779Z,8.77
2017-02-21T02:59:39.771Z,8.86
2017-02-21T03:00:39.769Z,8.94
2017-02-21T03:01:39.763Z,8.95
2017-02-21T03:02:39.741Z,9.01
2017-02-21T03:03:39.744Z,8.94
2017-02-21T03:04:39.726Z,9.1
2017-02-21T03:05:39.717Z,9.05
2017-02-21T03:06:39.719Z,9.01
2017-02-21T03:07:39.701Z,9.05
2017-02-21T03:08:39.684Z,9.02
2017-02-21T03:09:39.679Z,9.02
2017-02-21T03:10:39.682Z,9.05
2017-02-21T03:11:39.657Z,9.11
2017-02-21T03:12:39.650Z,9.1
2017-02-21T03:13:39.632Z,9.05
2017-02-21T03:14:39.626Z,9.1
2017-02-21T03:15:39.616Z,9.02
2017-02-21T03:16:39.609Z,9.04
2017-02-21T03:17:39.600Z,9.01
2017-02-21T03:18:39.587Z,9.01
2017-02-21T03:19:39.580Z,8.99
2017-02-21T03:20:39.570Z,9.05
2017-02-21T03:21:39.563Z,9.04
2017-02-21T03:22:39.581Z,9.1
2017-02-21T03:23:39.541Z,9.1
2017-02-21T03:24:39.146Z,9.1
2017-02-21T03:25:39.523Z,9.08
2017-02-21T03:26:39.513Z,9.15
2017-02-21T03:27:39.516Z,9.18
2017-02-21T03:28:39.107Z,9.14
2017-02-21T03:29:39.490Z,9.23
2017-02-21T03:30:39.487Z,9.26
2017-02-21T03:31:39.465Z,9.21
2017-02-21T03:32:39.470Z,9.24
2017-02-21T03:33:39.447Z,9.13
2017-02-21T03:34:39.474Z,9.23
2017-02-21T03:35:39.430Z,9.17
2017-02-21T03:36:39.080Z,9.28
2017-02-21T03:37:39.412Z,9.18
2017-02-21T03:38:39.399Z,9.18
2017-02-21T03:39:39.409Z,9.17
2017-02-21T03:40:39.380Z,9.18
2017-02-21T03:41:39.382Z,9.21
2017-02-21T03:42:38.979Z,9.14
2017-02-21T03:43:39.356Z,9.18
2017-02-21T03:44:39.345Z,9.17
2017-02-21T03:45:39.343Z,9.13
2017-02-21T03:46:39.339Z,9.1
2017-02-21T03:47:39.322Z,9.02
2017-02-21T03:48:39.305Z,9.05
2017-02-21T03:49:39.311Z,9.04
2017-02-21T03:50:39.313Z,9.01
2017-02-21T03:51:39.284Z,9.01
2017-02-21T03:52:39.269Z,8.99
2017-02-21T03:53:39.261Z,8.91
2017-02-21T03:54:39.258Z,8.95
2017-02-21T03:55:39.262Z,8.96
2017-02-21T03:56:39.245Z,8.92
2017-02-21T03:57:38.845Z,8.89
2017-02-21T03:58:38.827Z,8.94
2017-02-21T03:59:39.202Z,8.89
2017-02-21T04:00:39.251Z,8.87
2017-02-21T04:01:39.187Z,8.84
2017-02-21T04:02:39.185Z,8.94
2017-02-21T04:03:39.165Z,8.86
2017-02-21T04:04:39.159Z,8.91
2017-02-21T04:05:39.145Z,8.86
2017-02-21T04:06:39.157Z,8.95
2017-02-21T04:07:39.131Z,8.96
2017-02-21T04:08:39.118Z,8.95
2017-02-21T04:09:38.731Z,8.92
2017-02-21T04:10:39.104Z,8.87
2017-02-21T04:11:39.103Z,8.86
2017-02-21T04:12:38.701Z,8.81
2017-02-21T04:13:39.075Z,8.8
2017-02-21T04:14:39.060Z,8.81
2017-02-21T04:15:39.054Z,8.81
2017-02-21T04:16:39.041Z,8.84
2017-02-21T04:17:39.033Z,8.86
2017-02-21T04:18:38.646Z,8.84
2017-02-21T04:19:39.033Z,8.86
2017-02-21T04:20:38.628Z,8.94
2017-02-21T04:21:38.997Z,8.92
2017-02-21T04:22:38.599Z,8.92
2017-02-21T04:23:38.976Z,8.94
2017-02-21T04:24:38.976Z,8.89
2017-02-21T04:25:38.957Z,8.91
2017-02-21T04:26:38.948Z,8.95
2017-02-21T04:27:38.945Z,8.99
2017-02-21T04:28:38.928Z,8.98
2017-02-21T04:29:38.922Z,9.04
2017-02-21T04:30:38.912Z,9.02
2017-02-21T04:31:38.910Z,9.04
2017-02-21T04:32:38.895Z,9.02
2017-02-21T04:33:38.883Z,8.96
2017-02-21T04:34:38.880Z,8.98
2017-02-21T04:35:38.868Z,9.05
2017-02-21T04:36:38.864Z,9.05
2017-02-21T04:37:38.843Z,9.08
2017-02-21T04:38:38.445Z,9.04
2017-02-21T04:39:38.828Z,9.15
2017-02-21T04:40:38.822Z,9.13
2017-02-21T04:41:38.805Z,9.17
2017-02-21T04:42:38.795Z,9.11
2017-02-21T04:43:38.795Z,9.1
2017-02-21T04:44:38.794Z,9.18
2017-02-21T04:45:38.773Z,9.2
2017-02-21T04:46:38.759Z,9.23
2017-02-21T04:47:38.751Z,9.28
2017-02-21T04:48:38.749Z,9.17
2017-02-21T04:49:38.744Z,9.18
2017-02-21T04:50:38.718Z,9.17
2017-02-21T04:51:38.723Z,9.15
2017-02-21T04:52:38.706Z,9.2
2017-02-21T04:53:38.708Z,9.31
2017-02-21T04:54:38.683Z,9.26
2017-02-21T04:55:38.701Z,9.33
2017-02-21T04:56:38.676Z,9.2
2017-02-21T04:57:38.273Z,9.29
2017-02-21T04:58:38.657Z,9.29
2017-02-21T04:59:38.636Z,9.39
2017-02-21T05:00:38.640Z,9.4
2017-02-21T05:01:38.616Z,9.35
2017-02-21T05:02:38.609Z,9.38
2017-02-21T05:03:38.601Z,9.42
2017-02-21T05:04:38.206Z,9.48
2017-02-21T05:05:38.579Z,9.42
2017-02-21T05:06:38.573Z,9.47
2017-02-21T05:07:38.562Z,9.51
2017-02-21T05:08:38.551Z,9.46
2017-02-21T05:09:38.567Z,9.5
2017-02-21T05:10:38.600Z,9.5
2017-02-21T05:11:38.525Z,9.47
2017-02-21T05:12:38.538Z,9.46
2017-02-21T05:13:38.520Z,9.53
2017-02-21T05:14:38.495Z,9.54
2017-02-21T05:15:38.488Z,9.61
2017-02-21T05:16:38.481Z,9.58
2017-02-21T05:17:38.474Z,9.57
2017-02-21T05:18:38.479Z,9.6
2017-02-21T05:19:38.452Z,9.57
2017-02-21T05:20:38.453Z,9.61
2017-02-21T05:21:38.447Z,9.64
2017-02-21T05:22:38.426Z,9.61
2017-02-21T05:23:38.419Z,9.6
2017-02-21T05:24:38.407Z,9.58
2017-02-21T05:25:38.403Z,9.58
2017-02-21T05:26:38.411Z,9.57
2017-02-21T05:27:38.381Z,9.54
2017-02-21T05:28:38.370Z,9.57
2017-02-21T05:29:38.364Z,9.64
2017-02-21T05:30:38.356Z,9.57
2017-02-21T05:31:38.341Z,9.58
2017-02-21T05:32:38.335Z,9.58
2017-02-21T05:33:38.336Z,9.58
2017-02-21T05:34:38.346Z,9.54
2017-02-21T05:35:38.311Z,9.61
2017-02-21T05:36:38.301Z,9.53
2017-02-21T05:37:38.306Z,9.5
2017-02-21T05:38:38.286Z,9.48
2017-02-21T05:39:38.273Z,9.5
2017-02-21T05:40:38.262Z,9.5
2017-02-21T05:41:38.253Z,9.46
2017-02-21T05:42:38.247Z,9.48
2017-02-21T05:43:38.259Z,9.47
2017-02-21T05:44:38.224Z,9.56
2017-02-21T05:45:38.225Z,9.46
2017-02-21T05:46:38.208Z,9.47
2017-02-21T05:47:38.199Z,9.5
2017-02-21T05:48:38.202Z,9.48
2017-02-21T05:49:38.181Z,9.48
2017-02-21T05:50:38.172Z,9.47
2017-02-21T05:51:38.161Z,9.53
2017-02-21T05:52:38.161Z,9.5
2017-02-21T05:53:38.143Z,9.54
2017-02-21T05:54:38.136Z,9.43
2017-02-21T05:55:38.141Z,9.47
2017-02-21T05:56:38.134Z,9.5
2017-02-21T05:57:38.109Z,9.47
2017-02-21T05:58:38.107Z,9.46
2017-02-21T05:59:38.109Z,9.5
2017-02-21T06:00:38.095Z,9.48
2017-02-21T06:01:38.073Z,9.51
2017-02-21T06:02:38.068Z,9.5
2017-02-21T06:03:38.052Z,9.5
2017-02-21T06:04:38.050Z,9.51
2017-02-21T06:05:38.037Z,9.48
2017-02-21T06:06:38.029Z,9.48
2017-02-21T06:07:38.024Z,9.46
2017-02-21T06:08:38.010Z,9.46
2017-02-21T06:09:38.000Z,9.47
2017-02-21T06:10:38.005Z,9.54
2017-02-21T06:11:37.987Z,9.5
2017-02-21T06:12:37.970Z,9.48
2017-02-21T06:13:37.984Z,9.47
2017-02-21T06:14:37.954Z,9.5
2017-02-21T06:15:37.946Z,9.51
2017-02-21T06:16:37.934Z,9.5
2017-02-21T06:17:37.927Z,9.47
2017-02-21T06:18:37.940Z,9.51
2017-02-21T06:19:37.916Z,9.5
2017-02-21T06:20:37.903Z,9.53
2017-02-21T06:21:37.891Z,9.51
2017-02-21T06:22:37.880Z,9.53
2017-02-21T06:23:37.873Z,9.46
2017-02-21T06:24:37.862Z,9.47
2017-02-21T06:25:37.854Z,9.5
2017-02-21T06:26:37.847Z,9.51
2017-02-21T06:27:37.834Z,9.5
2017-02-21T06:28:37.829Z,9.53
2017-02-21T06:29:37.835Z,9.53
2017-02-21T06:30:37.808Z,9.46
2017-02-21T06:31:37.801Z,9.54
2017-02-21T06:32:37.801Z,9.51
2017-02-21T06:33:37.784Z,9.48
2017-02-21T06:34:37.772Z,9.43
2017-02-21T06:35:37.774Z,9.5
2017-02-21T06:36:37.752Z,9.54
2017-02-21T06:37:37.756Z,9.57
2017-02-21T06:38:37.737Z,9.61
2017-02-21T06:39:37.735Z,9.57
2017-02-21T06:40:37.717Z,9.56
2017-02-21T06:41:37.717Z,9.54
2017-02-21T06:42:37.701Z,9.61
2017-02-21T06:43:37.708Z,9.64
2017-02-21T06:44:37.696Z,9.61
2017-02-21T06:45:37.692Z,9.61
2017-02-21T06:46:37.661Z,9.61
2017-02-21T06:47:37.652Z,9.66
2017-02-21T06:48:37.649Z,9.69
2017-02-21T06:49:37.645Z,9.72
2017-02-21T06:50:37.636Z,9.64
2017-02-21T06:51:37.619Z,9.71
2017-02-21T06:52:37.611Z,9.69
2017-02-21T06:53:37.623Z,9.71
2017-02-21T06:54:37.592Z,9.65
2017-02-21T06:55:37.592Z,9.71
2017-02-21T06:56:37.198Z,9.68
2017-02-21T06:57:37.567Z,9.78
2017-02-21T06:58:37.184Z,9.76
2017-02-21T06:59:37.564Z,9.79
2017-02-21T07:00:37.561Z,9.83
2017-02-21T07:01:37.530Z,9.79
2017-02-21T07:02:37.541Z,9.86
2017-02-21T07:03:37.520Z,9.86
2017-02-21T07:04:37.503Z,9.86
2017-02-21T07:05:37.494Z,9.87
2017-02-21T07:06:37.495Z,9.86
2017-02-21T07:07:37.501Z,9.87
2017-02-21T07:08:37.464Z,9.91
2017-02-21T07:09:37.465Z,9.99
2017-02-21T07:10:37.476Z,9.91
2017-02-21T07:11:37.465Z,9.93
2017-02-21T07:12:37.435Z,9.9
2017-02-21T07:13:37.426Z,10.02
2017-02-21T07:14:37.416Z,10.12
2017-02-21T07:15:37.406Z,10.05
2017-02-21T07:16:37.011Z,10.08
2017-02-21T07:17:37.387Z,10.08
2017-02-21T07:18:36.994Z,10.09
2017-02-21T07:19:36.987Z,10.11
2017-02-21T07:20:37.368Z,10.05
2017-02-21T07:21:36.967Z,10.08
2017-02-21T07:22:36.974Z,10.12
2017-02-21T07:23:37.339Z,10.22
2017-02-21T07:24:37.339Z,10.2
2017-02-21T07:25:36.934Z,10.2
2017-02-21T07:26:37.312Z,10.25
2017-02-21T07:27:37.316Z,10.27
2017-02-21T07:28:37.296Z,10.36
2017-02-21T07:29:37.285Z,10.27
2017-02-21T07:30:37.288Z,10.27
2017-02-21T07:31:37.268Z,10.38
2017-02-21T07:32:37.261Z,10.41
2017-02-21T07:33:37.250Z,10.42
2017-02-21T07:34:37.252Z,10.45
2017-02-21T07:35:37.236Z,10.47
2017-02-21T07:36:37.231Z,10.51
2017-02-21T07:37:37.236Z,10.53
2017-02-21T07:38:37.217Z,10.47
2017-02-21T07:39:37.231Z,10.4
2017-02-21T07:40:37.191Z,10.47
2017-02-21T07:41:37.189Z,10.42
2017-02-21T07:42:37.187Z,10.4
2017-02-21T07:43:37.168Z,10.47
2017-02-21T07:44:37.160Z,10.47
2017-02-21T07:45:37.164Z,10.44
2017-02-21T07:46:37.154Z,10.42
2017-02-21T07:47:37.140Z,10.47
2017-02-21T07:48:37.170Z,10.56
2017-02-21T07:49:37.118Z,10.56
2017-02-21T07:50:37.162Z,10.48
2017-02-21T07:51:37.100Z,10.59
2017-02-21T07:52:37.103Z,10.61
2017-02-21T07:53:37.083Z,10.64
2017-02-21T07:54:37.079Z,10.63
2017-02-21T07:55:37.091Z,10.67
2017-02-21T07:56:37.095Z,10.68
2017-02-21T07:57:37.054Z,10.64
2017-02-21T07:58:37.089Z,10.68
2017-02-21T07:59:37.049Z,10.7
2017-02-21T08:00:37.038Z,10.79
2017-02-21T08:01:37.022Z,10.76
2017-02-21T08:02:37.028Z,10.84
2017-02-21T08:03:37.003Z,10.89
2017-02-21T08:04:36.993Z,10.91
2017-02-21T08:05:36.984Z,10.92
2017-02-21T08:06:36.983Z,10.85
2017-02-21T08:07:37.000Z,10.79
2017-02-21T08:08:36.964Z,10.86
2017-02-21T08:09:36.957Z,10.86
2017-02-21T08:10:36.944Z,10.84
2017-02-21T08:11:36.959Z,10.86
2017-02-21T08:12:36.939Z,10.86
2017-02-21T08:13:36.924Z,10.88
2017-02-21T08:14:36.933Z,10.88
2017-02-21T08:15:36.915Z,10.91
2017-02-21T08:16:36.912Z,10.86
2017-02-21T08:17:36.912Z,10.89
2017-02-21T08:18:36.919Z,10.82
2017-02-21T08:19:36.885Z,10.74
2017-02-21T08:20:36.876Z,10.79
2017-02-21T08:21:36.873Z,10.74
2017-02-21T08:22:36.864Z,10.73
2017-02-21T08:23:36.846Z,10.73
2017-02-21T08:24:36.837Z,10.73
2017-02-21T08:25:36.838Z,10.67
2017-02-21T08:26:36.823Z,10.64
2017-02-21T08:27:36.824Z,10.63
2017-02-21T08:28:36.815Z,10.59
2017-02-21T08:29:36.798Z,10.59
2017-02-21T08:30:36.792Z,10.63
2017-02-21T08:31:36.775Z,10.6
2017-02-21T08:32:36.769Z,10.52
2017-02-21T08:33:36.782Z,10.47
2017-02-21T08:34:36.765Z,10.45
2017-02-21T08:35:36.756Z,10.48
2017-02-21T08:36:36.737Z,10.47
2017-02-21T08:37:36.743Z,10.4
2017-02-21T08:38:36.741Z,10.34
2017-02-21T08:39:36.743Z,10.34
2017-02-21T08:40:36.705Z,10.33
2017-02-21T08:41:36.695Z,10.29
2017-02-21T08:42:36.687Z,10.32
2017-02-21T08:43:36.704Z,10.32
2017-02-21T08:44:36.682Z,10.29
2017-02-21T08:45:36.279Z,10.18
2017-02-21T08:46:36.665Z,10.2
2017-02-21T08:47:36.657Z,10.22
2017-02-21T08:48:36.634Z,10.23
2017-02-21T08:49:36.629Z,10.17
2017-02-21T08:50:36.630Z,10.27
2017-02-21T08:51:36.612Z,10.23
2017-02-21T08:52:36.606Z,10.18
2017-02-21T08:53:36.594Z,10.15
2017-02-21T08:54:36.589Z,10.14
2017-02-21T08:55:36.579Z,10.15
2017-02-21T08:56:36.572Z,10.2
2017-02-21T08:57:36.573Z,10.12
2017-02-21T08:58:36.560Z,10.11
2017-02-21T08:59:36.546Z,10.14
2017-02-21T09:00:36.540Z,10.22
2017-02-21T09:01:36.559Z,10.12
2017-02-21T09:02:36.519Z,10.04
2017-02-21T09:03:36.532Z,10.14
2017-02-21T09:04:36.502Z,10.09
2017-02-21T09:05:36.506Z,10.08
2017-02-21T09:06:36.492Z,10.07
2017-02-21T09:07:36.481Z,10.08
2017-02-21T09:08:36.467Z,10.01
2017-02-21T09:09:36.472Z,10.04
2017-02-21T09:10:36.464Z,10.01
2017-02-21T09:11:36.444Z,10.01
2017-02-21T09:12:36.444Z,9.99
2017-02-21T09:13:36.434Z,10.12
2017-02-21T09:14:36.419Z,10.07
2017-02-21T09:15:36.408Z,10.04
2017-02-21T09:16:36.400Z,10.11
2017-02-21T09:17:36.388Z,10.05
2017-02-21T09:18:36.385Z,10.07
2017-02-21T09:19:36.393Z,10.17
2017-02-21T09:20:36.372Z,10.11
2017-02-21T09:21:36.370Z,10.09
2017-02-21T09:22:36.347Z,10.05
2017-02-21T09:23:36.353Z,10.15
2017-02-21T09:24:36.348Z,10.08
2017-02-21T09:25:36.327Z,10.09
2017-02-21T09:26:36.313Z,10.11
2017-02-21T09:27:36.317Z,10.08
2017-02-21T09:28:36.315Z,10.04
2017-02-21T09:29:36.295Z,9.9
2017-02-21T09:30:36.294Z,9.91
2017-02-21T09:31:35.894Z,9.91
2017-02-21T09:32:36.264Z,9.9
2017-02-21T09:33:36.265Z,9.81
2017-02-21T09:34:36.257Z,9.87
2017-02-21T09:35:36.237Z,9.83
2017-02-21T09:36:36.230Z,9.66
2017-02-21T09:37:36.223Z,9.74
2017-02-21T09:38:36.217Z,9.69
2017-02-21T09:39:36.226Z,9.71
2017-02-21T09:40:36.195Z,9.72
2017-02-21T09:41:36.187Z,9.66
2017-02-21T09:42:35.793Z,9.71
2017-02-21T09:43:36.168Z,9.71
2017-02-21T09:44:35.784Z,9.81
2017-02-21T09:45:35.766Z,9.83
2017-02-21T09:46:36.153Z,9.86
2017-02-21T09:47:35.749Z,9.84
2017-02-21T09:48:36.124Z,9.76
2017-02-21T09:49:35.730Z,9.83
2017-02-21T09:50:35.733Z,9.79
2017-02-21T09:51:35.736Z,9.76
2017-02-21T09:52:36.089Z,9.75
2017-02-21T09:53:35.314Z,9.76
2017-02-21T09:54:36.116Z,9.72
2017-02-21T09:55:36.070Z,9.71
2017-02-21T09:56:36.066Z,9.72
2017-02-21T09:57:36.058Z,9.76
2017-02-21T09:58:36.079Z,9.66
2017-02-21T09:59:36.026Z,9.74
2017-02-21T10:00:36.043Z,9.72
2017-02-21T10:01:36.012Z,9.65
2017-02-21T10:02:36.003Z,9.6
2017-02-21T10:03:35.993Z,9.64
2017-02-21T10:04:35.619Z,9.53
2017-02-21T10:05:35.979Z,9.4
2017-02-21T10:06:35.969Z,9.42
2017-02-21T10:07:35.959Z,9.43
2017-02-21T10:08:35.969Z,9.4
2017-02-21T10:09:35.947Z,9.47
2017-02-21T10:10:35.937Z,9.48
2017-02-21T10:11:35.932Z,9.47
2017-02-21T10:12:35.919Z,9.5
2017-02-21T10:13:35.941Z,9.61
2017-02-21T10:14:35.903Z,9.54
2017-02-21T10:15:35.913Z,9.46
2017-02-21T10:16:35.900Z,9.47
2017-02-21T10:17:35.875Z,9.46
2017-02-21T10:18:35.875Z,9.4
2017-02-21T10:19:35.871Z,9.35
2017-02-21T10:20:35.862Z,9.31
2017-02-21T10:21:35.842Z,9.39
2017-02-21T10:22:35.843Z,9.35
2017-02-21T10:23:35.832Z,9.38
2017-02-21T10:24:35.816Z,9.29
2017-02-21T10:25:35.821Z,9.2
2017-02-21T10:26:35.804Z,9.15
2017-02-21T10:27:35.789Z,9.18
2017-02-21T10:28:35.795Z,9.13
2017-02-21T10:29:35.774Z,9.18
2017-02-21T10:30:35.791Z,9.02
2017-02-21T10:31:35.761Z,8.98
2017-02-21T10:32:35.797Z,8.96
2017-02-21T10:33:35.765Z,8.86
2017-02-21T10:34:35.730Z,8.83
2017-02-21T10:35:35.722Z,8.81
2017-02-21T10:36:35.721Z,8.86
2017-02-21T10:37:35.702Z,8.87
2017-02-21T10:38:35.718Z,8.89
2017-02-21T10:39:35.690Z,8.89
2017-02-21T10:40:35.690Z,8.92
2017-02-21T10:41:35.666Z,9.08
2017-02-21T10:42:35.685Z,9.15
2017-02-21T10:43:35.692Z,9.2
2017-02-21T10:44:35.651Z,9.21
2017-02-21T10:45:35.643Z,9.28
2017-02-21T10:46:35.639Z,9.32
2017-02-21T10:47:35.616Z,9.38
2017-02-21T10:48:35.616Z,9.4
2017-02-21T10:49:35.610Z,9.43
2017-02-21T10:50:35.588Z,9.48
2017-02-21T10:51:35.580Z,9.39
2017-02-21T10:52:35.582Z,9.5
2017-02-21T10:53:35.568Z,9.5
2017-02-21T10:54:35.555Z,9.48
2017-02-21T10:55:35.551Z,9.57
2017-02-21T10:56:35.543Z,9.56
2017-02-21T10:57:35.548Z,9.47
2017-02-21T10:58:35.526Z,9.46
2017-02-21T10:59:35.514Z,9.53
2017-02-21T11:00:35.519Z,9.46
2017-02-21T11:01:35.499Z,9.51
2017-02-21T11:02:35.504Z,9.47
2017-02-21T11:03:35.499Z,9.58
2017-02-21T11:04:35.475Z,9.56
2017-02-21T11:05:35.464Z,9.64
2017-02-21T11:06:35.456Z,9.66
2017-02-21T11:07:35.457Z,9.74
2017-02-21T11:08:35.438Z,9.68
2017-02-21T11:09:35.429Z,9.69
2017-02-21T11:10:35.429Z,9.69
2017-02-21T11:11:35.413Z,9.66
2017-02-21T11:12:35.406Z,9.71
2017-02-21T11:13:35.399Z,9.69
2017-02-21T11:14:35.011Z,9.71
2017-02-21T11:15:35.385Z,9.71
2017-02-21T11:16:35.389Z,9.75
2017-02-21T11:17:35.362Z,9.69
2017-02-21T11:18:35.371Z,9.64
2017-02-21T11:19:35.364Z,9.71
2017-02-21T11:20:34.951Z,9.56
2017-02-21T11:21:35.339Z,9.64
2017-02-21T11:22:35.330Z,9.61
2017-02-21T11:23:34.927Z,9.64
2017-02-21T11:24:35.331Z,9.66
2017-02-21T11:25:35.308Z,9.68
2017-02-21T11:26:35.293Z,9.64
2017-02-21T11:27:35.280Z,9.65
2017-02-21T11:28:35.279Z,9.69
2017-02-21T11:29:35.261Z,9.76
2017-02-21T11:30:35.259Z,9.66
2017-02-21T11:31:35.253Z,9.66
2017-02-21T11:32:35.239Z,9.84
2017-02-21T11:33:35.248Z,9.78
2017-02-21T11:34:35.222Z,9.9
2017-02-21T11:35:35.211Z,9.83
2017-02-21T11:36:35.213Z,9.83
2017-02-21T11:37:35.197Z,9.86
2017-02-21T11:38:35.185Z,9.91
2017-02-21T11:39:35.182Z,9.9
2017-02-21T11:40:35.173Z,9.94
2017-02-21T11:41:35.171Z,9.99
2017-02-21T11:42:35.188Z,9.83
2017-02-21T11:43:35.148Z,9.89
2017-02-21T11:44:35.145Z,9.83
2017-02-21T11:45:35.130Z,9.76
2017-02-21T11:46:35.137Z,9.86
2017-02-21T11:47:35.116Z,9.87
2017-02-21T11:48:35.108Z,9.89
2017-02-21T11:49:35.103Z,9.79
2017-02-21T11:50:35.093Z,9.79
2017-02-21T11:51:35.091Z,9.9
2017-02-21T11:52:35.079Z,9.91
2017-02-21T11:53:35.068Z,9.93
2017-02-21T11:54:35.066Z,9.93
2017-02-21T11:55:35.049Z,9.91
2017-02-21T11:56:35.039Z,10.02
2017-02-21T11:57:35.055Z,10.11
2017-02-21T11:58:35.040Z,10.07
2017-02-21T11:59:35.018Z,10.01
2017-02-21T12:00:34.625Z,10.11
2017-02-21T12:01:35.018Z,10.18
2017-02-21T12:02:34.995Z,10.18
2017-02-21T12:03:34.992Z,10.34
2017-02-21T12:04:34.980Z,10.6
2017-02-21T12:05:34.976Z,10.78
2017-02-21T12:06:34.968Z,10.86
2017-02-21T12:07:34.952Z,11.06
2017-02-21T12:08:34.941Z,11.33
2017-02-21T12:09:34.935Z,11.46
2017-02-21T12:10:34.927Z,11.7
2017-02-21T12:11:34.923Z,11.78
2017-02-21T12:12:34.913Z,11.94
2017-02-21T12:13:34.519Z,11.94
2017-02-21T12:14:34.898Z,12.04
2017-02-21T12:15:34.520Z,12.1
2017-02-21T12:16:34.894Z,12.04
2017-02-21T12:17:34.882Z,12.05
2017-02-21T12:18:34.528Z,12.16
2017-02-21T12:19:34.483Z,12.21
2017-02-21T12:20:34.870Z,12.29
2017-02-21T12:21:34.853Z,12.32
2017-02-21T12:22:34.845Z,12.35
2017-02-21T12:23:34.065Z,12.27
2017-02-21T12:24:34.831Z,12.27
2017-02-21T12:25:34.828Z,12.1
2017-02-21T12:26:34.430Z,12.21
2017-02-21T12:27:34.424Z,12.21
2017-02-21T12:28:34.037Z,12.16
2017-02-21T12:29:34.805Z,12.19
2017-02-21T12:30:34.418Z,12.16
2017-02-21T12:31:34.410Z,12.17
2017-02-21T12:32:34.807Z,12.12
2017-02-21T12:33:34.391Z,12.13
2017-02-21T12:34:33.995Z,12.12
2017-02-21T12:35:34.376Z,12.04
2017-02-21T12:36:34.773Z,12.05
2017-02-21T12:37:34.376Z,12.14
2017-02-21T12:38:34.742Z,12.12
2017-02-21T12:39:34.735Z,12.24
2017-02-21T12:40:34.729Z,12.32
2017-02-21T12:41:34.736Z,12.45
2017-02-21T12:42:33.951Z,12.32
2017-02-21T12:43:34.709Z,12.42
2017-02-21T12:44:34.703Z,12.49
2017-02-21T12:45:34.697Z,12.53
2017-02-21T12:46:34.691Z,12.53
2017-02-21T12:47:34.692Z,12.6
2017-02-21T12:48:34.683Z,12.7
2017-02-21T12:49:34.677Z,12.7
2017-02-21T12:50:34.668Z,12.7
2017-02-21T12:51:34.658Z,12.57
2017-02-21T12:52:34.649Z,12.49
2017-02-21T12:53:34.672Z,12.45
2017-02-21T12:54:34.646Z,12.42
2017-02-21T12:55:34.644Z,12.37
2017-02-21T12:56:34.645Z,12.32
2017-02-21T12:57:34.620Z,12.2
2017-02-21T12:58:34.617Z,12.04
2017-02-21T12:59:34.608Z,12.09
2017-02-21T13:00:34.606Z,11.88
2017-02-21T13:01:34.633Z,11.9
2017-02-21T13:02:34.592Z,11.72
2017-02-21T13:03:34.583Z,11.62
2017-02-21T13:04:34.576Z,11.46
2017-02-21T13:05:34.565Z,11.43
2017-02-21T13:06:34.177Z,11.25
2017-02-21T13:07:34.558Z,11.24
2017-02-21T13:08:34.547Z,11.27
2017-02-21T13:09:34.543Z,11.24
2017-02-21T13:10:34.547Z,11.07